createdAt,value
2023-09-10T00:00:19.161Z,15.72
2023-09-10T00:01:19.273Z,15.72
2023-09-10T00:02:19.164Z,15.69
2023-09-10T00:03:19.214Z,15.73
2023-09-10T00:04:19.143Z,15.70
2023-09-10T00:05:19.110Z,15.76
2023-09-10T00:06:19.095Z,15.69
2023-09-10T00:07:19.089Z,15.72
2023-09-10T00:08:19.078Z,15.69
2023-09-10T00:09:19.070Z,15.68
2023-09-10T00:10:19.073Z,15.68
2023-09-10T00:11:19.097Z,15.78
2023-09-10T00:12:19.032Z,15.73
2023-09-10T00:13:19.041Z,15.70
2023-09-10T00:14:19.007Z,15.70
2023-09-10T00:15:19.000Z,15.70
2023-09-10T00:16:19.029Z,15.70
2023-09-10T00:17:18.985Z,15.65
2023-09-10T00:18:18.969Z,15.68
2023-09-10T00:19:19.261Z,15.68
2023-09-10T00:20:18.960Z,15.60
2023-09-10T00:21:18.956Z,15.60
2023-09-10T00:22:18.931Z,15.62
2023-09-10T00:23:18.940Z,15.62
2023-09-10T00:24:18.907Z,15.59
2023-09-10T00:25:18.919Z,15.60
2023-09-10T00:26:18.881Z,15.58
2023-09-10T00:27:18.885Z,15.58
2023-09-10T00:28:18.862Z,15.56
2023-09-10T00:29:18.898Z,15.59
2023-09-10T00:30:19.060Z,15.56
2023-09-10T00:31:18.874Z,15.52
2023-09-10T00:32:18.851Z,15.52
2023-09-10T00:33:18.959Z,15.48
2023-09-10T00:34:18.816Z,15.51
2023-09-10T00:35:18.805Z,15.50
2023-09-10T00:36:18.774Z,15.47
2023-09-10T00:37:18.792Z,15.44
2023-09-10T00:38:18.775Z,15.51
2023-09-10T00:39:19.549Z,15.44
2023-09-10T00:40:18.729Z,15.47
2023-09-10T00:41:18.722Z,15.50
2023-09-10T00:42:18.708Z,15.44
2023-09-10T00:43:18.718Z,15.44
2023-09-10T00:44:18.684Z,15.44
2023-09-10T00:45:18.699Z,15.40
2023-09-10T00:46:18.740Z,15.35
2023-09-10T00:47:18.680Z,15.36
2023-09-10T00:48:18.641Z,15.33
2023-09-10T00:49:18.632Z,15.35
2023-09-10T00:50:18.678Z,15.32
2023-09-10T00:51:18.637Z,15.27
2023-09-10T00:52:18.602Z,15.33
2023-09-10T00:53:18.588Z,15.33
2023-09-10T00:54:18.575Z,15.32
2023-09-10T00:55:18.572Z,15.32
2023-09-10T00:56:18.566Z,15.30
2023-09-10T00:57:18.572Z,15.30
2023-09-10T00:58:18.540Z,15.33
2023-09-10T00:59:18.596Z,15.33
2023-09-10T01:00:18.550Z,15.29
2023-09-10T01:01:18.533Z,15.29
2023-09-10T01:02:18.560Z,15.29
2023-09-10T01:03:18.577Z,15.23
2023-09-10T01:04:18.471Z,15.25
2023-09-10T01:05:18.499Z,15.22
2023-09-10T01:06:18.447Z,15.23
2023-09-10T01:07:18.447Z,15.19
2023-09-10T01:08:18.443Z,15.14
2023-09-10T01:09:18.579Z,15.20
2023-09-10T01:10:18.422Z,15.14
2023-09-10T01:11:18.411Z,15.14
2023-09-10T01:12:18.388Z,15.15
2023-09-10T01:13:18.387Z,15.15
2023-09-10T01:14:18.388Z,15.14
2023-09-10T01:15:18.358Z,15.14
2023-09-10T01:16:18.355Z,15.14
2023-09-10T01:17:18.385Z,15.12
2023-09-10T01:18:18.376Z,15.10
2023-09-10T01:19:18.312Z,15.15
2023-09-10T01:20:18.359Z,15.17
2023-09-10T01:21:18.294Z,15.10
2023-09-10T01:22:18.276Z,15.11
2023-09-10T01:23:18.276Z,15.11
2023-09-10T01:24:18.254Z,15.08
2023-09-10T01:25:18.251Z,15.11
2023-09-10T01:26:18.258Z,15.12
2023-09-10T01:27:18.229Z,15.10
2023-09-10T01:28:18.215Z,15.05
2023-09-10T01:29:18.257Z,15.04
2023-09-10T01:30:18.200Z,15.04
2023-09-10T01:31:18.197Z,15.05
2023-09-10T01:32:18.193Z,15.04
2023-09-10T01:33:18.167Z,15.07
2023-09-10T01:34:18.156Z,15.04
2023-09-10T01:35:18.146Z,15.04
2023-09-10T01:36:18.133Z,15.03
2023-09-10T01:37:18.119Z,14.99
2023-09-10T01:38:18.129Z,14.96
2023-09-10T01:39:18.094Z,14.89
2023-09-10T01:40:18.082Z,14.95
2023-09-10T01:41:18.082Z,14.96
2023-09-10T01:42:18.073Z,14.93
2023-09-10T01:43:18.086Z,14.95
2023-09-10T01:44:18.073Z,14.92
2023-09-10T01:45:18.029Z,14.96
2023-09-10T01:46:18.079Z,14.87
2023-09-10T01:47:18.061Z,14.89
2023-09-10T01:48:18.094Z,14.93
2023-09-10T01:49:18.012Z,14.89
2023-09-10T01:50:18.084Z,14.92
2023-09-10T01:51:17.966Z,14.93
2023-09-10T01:52:17.964Z,14.87
2023-09-10T01:53:18.004Z,14.89
2023-09-10T01:54:17.941Z,14.86
2023-09-10T01:55:17.964Z,14.78
2023-09-10T01:56:17.935Z,14.85
2023-09-10T01:57:17.900Z,14.79
2023-09-10T01:58:17.890Z,14.77
2023-09-10T01:59:17.991Z,14.77
2023-09-10T02:00:17.875Z,14.78
2023-09-10T02:01:17.871Z,14.74
2023-09-10T02:02:17.951Z,14.77
2023-09-10T02:03:17.848Z,14.78
2023-09-10T02:04:17.897Z,14.78
2023-09-10T02:05:17.869Z,14.78
2023-09-10T02:06:17.816Z,14.74
2023-09-10T02:07:17.802Z,14.77
2023-09-10T02:08:17.822Z,14.78
2023-09-10T02:09:17.764Z,14.73
2023-09-10T02:10:17.762Z,14.77
2023-09-10T02:11:17.770Z,14.71
2023-09-10T02:12:17.761Z,14.67
2023-09-10T02:13:17.749Z,14.71
2023-09-10T02:14:17.789Z,14.70
2023-09-10T02:15:17.696Z,14.70
2023-09-10T02:16:17.757Z,14.66
2023-09-10T02:18:17.713Z,14.64
2023-09-10T02:19:17.652Z,14.59
2023-09-10T02:20:17.680Z,14.58
2023-09-10T02:21:17.636Z,14.55
2023-09-10T02:22:17.627Z,14.59
2023-09-10T02:23:17.673Z,14.56
2023-09-10T02:24:17.622Z,14.52
2023-09-10T02:25:17.609Z,14.52
2023-09-10T02:26:17.617Z,14.58
2023-09-10T02:27:17.604Z,14.51
2023-09-10T02:28:17.563Z,14.52
2023-09-10T02:29:17.582Z,14.52
2023-09-10T02:30:17.561Z,14.46
2023-09-10T02:31:17.575Z,14.46
2023-09-10T02:32:17.596Z,14.46
2023-09-10T02:33:17.534Z,14.41
2023-09-10T02:34:17.506Z,14.45
2023-09-10T02:35:17.554Z,14.49
2023-09-10T02:36:17.479Z,14.48
2023-09-10T02:37:17.465Z,14.45
2023-09-10T02:38:17.489Z,14.48
2023-09-10T02:39:17.436Z,14.48
2023-09-10T02:40:17.432Z,14.48
2023-09-10T02:41:17.458Z,14.48
2023-09-10T02:42:17.406Z,14.44
2023-09-10T02:43:17.392Z,14.48
2023-09-10T02:44:17.406Z,14.46
2023-09-10T02:45:17.382Z,14.45
2023-09-10T02:46:17.449Z,14.48
2023-09-10T02:47:17.383Z,14.48
2023-09-10T02:48:17.352Z,14.48
2023-09-10T02:49:17.325Z,14.46
2023-09-10T02:50:17.328Z,14.46
2023-09-10T02:51:17.303Z,14.45
2023-09-10T02:52:17.305Z,14.44
2023-09-10T02:53:17.385Z,14.46
2023-09-10T02:54:17.290Z,14.41
2023-09-10T02:55:17.266Z,14.46
2023-09-10T02:56:17.318Z,14.44
2023-09-10T02:57:17.243Z,14.44
2023-09-10T02:58:17.259Z,14.41
2023-09-10T02:59:17.247Z,14.41
2023-09-10T03:00:17.215Z,14.46
2023-09-10T03:01:17.208Z,14.41
2023-09-10T03:02:17.292Z,14.46
2023-09-10T03:03:17.222Z,14.40
2023-09-10T03:04:17.193Z,14.41
2023-09-10T03:05:17.222Z,14.38
2023-09-10T03:06:17.153Z,14.41
2023-09-10T03:07:17.132Z,14.33
2023-09-10T03:08:17.157Z,14.34
2023-09-10T03:09:17.171Z,14.38
2023-09-10T03:10:17.142Z,14.37
2023-09-10T03:11:17.141Z,14.38
2023-09-10T03:12:17.095Z,14.40
2023-09-10T03:13:17.070Z,14.40
2023-09-10T03:14:17.172Z,14.40
2023-09-10T03:15:17.083Z,14.38
2023-09-10T03:16:17.118Z,14.37
2023-09-10T03:17:17.094Z,14.37
2023-09-10T03:18:17.022Z,14.33
2023-09-10T03:19:17.008Z,14.30
2023-09-10T03:20:17.034Z,14.31
2023-09-10T03:21:16.989Z,14.28
2023-09-10T03:22:17.005Z,14.31
2023-09-10T03:23:17.002Z,14.33
2023-09-10T03:24:16.964Z,14.34
2023-09-10T03:25:16.979Z,14.31
2023-09-10T03:26:16.979Z,14.28
2023-09-10T03:27:16.950Z,14.26
2023-09-10T03:28:16.935Z,14.27
2023-09-10T03:29:16.956Z,14.23
2023-09-10T03:30:16.909Z,14.22
2023-09-10T03:31:16.883Z,14.22
2023-09-10T03:32:20.074Z,14.18
2023-09-10T03:33:16.959Z,14.16
2023-09-10T03:34:16.860Z,14.18
2023-09-10T03:35:16.893Z,14.18
2023-09-10T03:36:16.846Z,14.18
2023-09-10T03:37:16.832Z,14.21
2023-09-10T03:38:17.019Z,14.21
2023-09-10T03:39:16.806Z,14.18
2023-09-10T03:40:17.795Z,14.15
2023-09-10T03:41:16.812Z,14.18
2023-09-10T03:42:16.773Z,14.15
2023-09-10T03:43:16.761Z,14.16
2023-09-10T03:44:16.999Z,14.18
2023-09-10T03:45:16.763Z,14.27
2023-09-10T03:46:16.755Z,14.27
2023-09-10T03:47:16.789Z,14.27
2023-09-10T03:48:16.722Z,14.27
2023-09-10T03:49:16.712Z,14.26
2023-09-10T03:50:17.049Z,14.22
2023-09-10T03:51:16.703Z,14.21
2023-09-10T03:52:16.692Z,14.19
2023-09-10T03:53:16.707Z,14.13
2023-09-10T03:54:16.669Z,14.12
2023-09-10T03:55:16.724Z,14.16
2023-09-10T03:56:16.690Z,14.15
2023-09-10T03:57:16.643Z,14.15
2023-09-10T03:58:16.630Z,14.12
2023-09-10T03:59:16.661Z,14.12
2023-09-10T04:00:16.766Z,14.09
2023-09-10T04:01:16.610Z,14.12
2023-09-10T04:02:16.606Z,14.15
2023-09-10T04:03:16.637Z,14.11
2023-09-10T04:04:16.584Z,14.04
2023-09-10T04:05:16.664Z,14.08
2023-09-10T04:06:16.571Z,14.05
2023-09-10T04:07:16.554Z,14.04
2023-09-10T04:08:16.559Z,14.09
2023-09-10T04:09:16.511Z,14.00
2023-09-10T04:10:16.522Z,13.98
2023-09-10T04:11:16.578Z,14.03
2023-09-10T04:12:16.454Z,14.03
2023-09-10T04:13:16.475Z,14.03
2023-09-10T04:14:16.462Z,13.97
2023-09-10T04:15:16.459Z,13.97
2023-09-10T04:16:16.402Z,13.97
2023-09-10T04:17:16.550Z,13.93
2023-09-10T04:18:16.432Z,14.00
2023-09-10T04:19:16.364Z,14.09
2023-09-10T04:20:16.408Z,14.08
2023-09-10T04:21:16.345Z,14.11
2023-09-10T04:22:16.333Z,14.11
2023-09-10T04:23:16.385Z,14.08
2023-09-10T04:24:16.313Z,14.05
2023-09-10T04:25:16.331Z,14.04
2023-09-10T04:26:16.339Z,14.03
2023-09-10T04:27:16.298Z,14.01
2023-09-10T04:28:16.300Z,13.98
2023-09-10T04:29:16.286Z,14.00
2023-09-10T04:30:16.256Z,13.96
2023-09-10T04:31:16.330Z,14.00
2023-09-10T04:32:16.270Z,13.91
2023-09-10T04:33:16.241Z,13.91
2023-09-10T04:34:16.211Z,13.93
2023-09-10T04:35:16.248Z,13.96
2023-09-10T04:36:16.194Z,13.88
2023-09-10T04:37:16.236Z,13.90
2023-09-10T04:38:16.239Z,13.91
2023-09-10T04:39:16.259Z,13.94
2023-09-10T04:40:16.954Z,13.91
2023-09-10T04:41:16.234Z,13.88
2023-09-10T04:42:16.128Z,13.91
2023-09-10T04:43:16.109Z,13.93
2023-09-10T04:44:16.140Z,13.96
2023-09-10T04:45:16.137Z,13.93
2023-09-10T04:46:16.155Z,13.88
2023-09-10T04:47:16.148Z,13.94
2023-09-10T04:48:16.116Z,13.93
2023-09-10T04:49:16.072Z,13.93
2023-09-10T04:50:16.109Z,13.90
2023-09-10T04:51:16.040Z,13.91
2023-09-10T04:52:16.025Z,13.91
2023-09-10T04:53:16.085Z,13.93
2023-09-10T04:54:16.017Z,13.90
2023-09-10T04:55:15.994Z,13.90
2023-09-10T04:56:16.104Z,13.90
2023-09-10T04:57:15.972Z,13.86
2023-09-10T04:58:15.969Z,13.86
2023-09-10T04:59:16.020Z,13.91
2023-09-10T05:00:15.953Z,13.88
2023-09-10T05:01:15.969Z,13.85
2023-09-10T05:02:16.066Z,13.88
2023-09-10T05:03:15.966Z,13.90
2023-09-10T05:04:15.984Z,13.93
2023-09-10T05:05:15.953Z,13.94
2023-09-10T05:06:15.893Z,13.94
2023-09-10T05:07:15.907Z,13.98
2023-09-10T05:08:18.220Z,14.01
2023-09-10T05:09:15.861Z,14.05
2023-09-10T05:10:15.852Z,14.04
2023-09-10T05:11:15.959Z,14.08
2023-09-10T05:12:15.836Z,14.04
2023-09-10T05:13:15.862Z,14.05
2023-09-10T05:14:15.833Z,14.08
2023-09-10T05:15:15.812Z,14.11
2023-09-10T05:16:15.812Z,14.09
2023-09-10T05:17:15.815Z,14.09
2023-09-10T05:18:15.878Z,14.09
2023-09-10T05:19:15.754Z,14.12
2023-09-10T05:20:15.819Z,14.12
2023-09-10T05:21:15.738Z,14.16
2023-09-10T05:22:15.729Z,14.16
2023-09-10T05:23:15.749Z,14.13
2023-09-10T05:24:15.707Z,14.12
2023-09-10T05:25:15.693Z,14.12
2023-09-10T05:26:15.721Z,14.16
2023-09-10T05:27:15.673Z,14.12
2023-09-10T05:28:15.678Z,14.16
2023-09-10T05:29:15.835Z,14.18
2023-09-10T05:30:15.650Z,14.16
2023-09-10T05:31:15.655Z,14.19
2023-09-10T05:32:15.704Z,14.19
2023-09-10T05:33:15.639Z,14.16
2023-09-10T05:34:15.605Z,14.19
2023-09-10T05:35:15.650Z,14.26
2023-09-10T05:36:15.583Z,14.33
2023-09-10T05:37:15.579Z,14.37
2023-09-10T05:38:15.629Z,14.36
2023-09-10T05:39:15.577Z,14.36
2023-09-10T05:40:15.680Z,14.36
2023-09-10T05:41:15.616Z,14.34
2023-09-10T05:42:15.522Z,14.37
2023-09-10T05:43:15.507Z,14.33
2023-09-10T05:44:15.532Z,14.44
2023-09-10T05:45:15.511Z,14.45
2023-09-10T05:46:15.513Z,14.46
2023-09-10T05:47:15.487Z,14.51
2023-09-10T05:48:15.461Z,14.52
2023-09-10T05:49:15.448Z,14.52
2023-09-10T05:50:15.524Z,14.52
2023-09-10T05:51:15.435Z,14.56
2023-09-10T05:52:15.430Z,14.59
2023-09-10T05:53:15.438Z,14.58
2023-09-10T05:54:17.577Z,14.70
2023-09-10T05:55:15.391Z,14.73
2023-09-10T05:56:15.394Z,14.79
2023-09-10T05:57:15.378Z,14.85
2023-09-10T05:58:15.364Z,14.89
2023-09-10T05:59:15.359Z,14.92
2023-09-10T06:00:15.327Z,14.90
2023-09-10T06:01:15.383Z,15.01
2023-09-10T06:02:15.352Z,14.95
2023-09-10T06:03:15.418Z,14.96
2023-09-10T06:04:15.328Z,14.96
2023-09-10T06:05:15.330Z,14.97
2023-09-10T06:06:15.272Z,15.01
2023-09-10T06:07:15.270Z,15.05
2023-09-10T06:08:15.304Z,15.15
2023-09-10T06:09:15.232Z,15.25
2023-09-10T06:10:15.222Z,15.29
2023-09-10T06:11:15.261Z,15.35
2023-09-10T06:12:15.215Z,15.50
2023-09-10T06:13:15.185Z,15.47
2023-09-10T06:14:15.224Z,15.54
2023-09-10T06:15:15.168Z,15.58
2023-09-10T06:16:15.165Z,15.72
2023-09-10T06:17:15.227Z,15.72
2023-09-10T06:18:15.128Z,15.81
2023-09-10T06:19:15.120Z,15.85
2023-09-10T06:20:15.150Z,15.90
2023-09-10T06:21:15.101Z,15.99
2023-09-10T06:22:15.104Z,16.00
2023-09-10T06:23:15.098Z,16.10
2023-09-10T06:24:15.090Z,16.26
2023-09-10T06:25:15.055Z,16.39
2023-09-10T06:26:15.121Z,16.47
2023-09-10T06:27:15.030Z,16.59
2023-09-10T06:28:15.014Z,16.74
2023-09-10T06:29:15.089Z,16.82
2023-09-10T06:30:14.998Z,17.04
2023-09-10T06:31:15.020Z,17.24
2023-09-10T06:32:15.022Z,17.41
2023-09-10T06:33:14.999Z,17.69
2023-09-10T06:34:14.979Z,17.97
2023-09-10T06:35:14.990Z,18.30
2023-09-10T06:36:14.958Z,18.71
2023-09-10T06:37:14.928Z,19.05
2023-09-10T06:38:14.988Z,19.49
2023-09-10T06:39:14.984Z,20.00
2023-09-10T06:40:14.910Z,20.56
2023-09-10T06:41:14.976Z,21.01
2023-09-10T06:42:14.874Z,21.51
2023-09-10T06:43:14.869Z,21.94
2023-09-10T06:44:14.897Z,22.27
2023-09-10T06:45:14.880Z,22.61
2023-09-10T06:46:14.904Z,22.68
2023-09-10T06:47:14.855Z,22.78
2023-09-10T06:48:14.807Z,22.96
2023-09-10T06:49:14.797Z,23.06
2023-09-10T06:50:14.849Z,23.17
2023-09-10T06:51:14.783Z,23.61
2023-09-10T06:52:14.754Z,23.81
2023-09-10T06:53:14.789Z,24.10
2023-09-10T06:54:14.878Z,24.40
2023-09-10T06:55:14.758Z,24.56
2023-09-10T06:56:14.764Z,24.16
2023-09-10T06:57:14.716Z,24.36
2023-09-10T06:58:14.687Z,24.41
2023-09-10T06:59:14.714Z,24.44
2023-09-10T07:00:14.782Z,24.81
2023-09-10T07:01:14.682Z,25.14
2023-09-10T07:02:14.648Z,25.22
2023-09-10T07:03:14.757Z,25.19
2023-09-10T07:04:14.620Z,25.33
2023-09-10T07:05:14.694Z,25.23
2023-09-10T07:06:14.758Z,25.33
2023-09-10T07:07:14.593Z,25.34
2023-09-10T07:08:14.612Z,25.27
2023-09-10T07:09:14.577Z,25.63
2023-09-10T07:10:14.564Z,25.66
2023-09-10T07:11:14.579Z,25.73
2023-09-10T07:12:14.657Z,25.81
2023-09-10T07:13:14.535Z,25.75
2023-09-10T07:14:14.555Z,25.46
2023-09-10T07:15:14.507Z,25.66
2023-09-10T07:16:14.548Z,26.03
2023-09-10T07:17:14.581Z,26.04
2023-09-10T07:18:14.517Z,26.08
2023-09-10T07:19:14.465Z,26.20
2023-09-10T07:20:14.519Z,25.90
2023-09-10T07:21:14.457Z,26.07
2023-09-10T07:22:14.500Z,26.31
2023-09-10T07:23:14.541Z,26.58
2023-09-10T07:24:14.422Z,26.78
2023-09-10T07:25:14.434Z,26.95
2023-09-10T07:26:14.422Z,26.64
2023-09-10T07:27:14.389Z,26.94
2023-09-10T07:28:14.395Z,27.27
2023-09-10T07:29:14.421Z,27.37
2023-09-10T07:30:14.346Z,27.15
2023-09-10T07:31:14.365Z,26.42
2023-09-10T07:32:14.352Z,26.71
2023-09-10T07:33:14.394Z,26.79
2023-09-10T07:34:14.300Z,26.88
2023-09-10T07:35:14.358Z,27.03
2023-09-10T07:36:14.287Z,27.03
2023-09-10T07:37:14.276Z,27.08
2023-09-10T07:38:14.357Z,27.22
2023-09-10T07:39:14.257Z,27.25
2023-09-10T07:40:14.237Z,27.32
2023-09-10T07:41:14.292Z,27.26
2023-09-10T07:42:14.222Z,27.26
2023-09-10T07:43:14.218Z,27.10
2023-09-10T07:44:14.243Z,26.03
2023-09-10T07:45:14.197Z,26.27
2023-09-10T07:46:14.214Z,26.53
2023-09-10T07:47:14.184Z,26.15
2023-09-10T07:48:14.176Z,26.27
2023-09-10T07:49:14.150Z,26.42
2023-09-10T07:50:14.203Z,26.52
2023-09-10T07:51:14.136Z,26.75
2023-09-10T07:52:14.142Z,26.82
2023-09-10T07:53:14.105Z,27.22
2023-09-10T07:54:14.093Z,27.53
2023-09-10T07:55:14.109Z,27.57
2023-09-10T07:56:14.113Z,27.61
2023-09-10T07:57:16.116Z,27.85
2023-09-10T07:58:14.052Z,27.94
2023-09-10T07:59:14.075Z,28.24
2023-09-10T08:00:14.032Z,28.53
2023-09-10T08:01:14.078Z,28.86
2023-09-10T08:02:14.048Z,29.03
2023-09-10T08:03:14.792Z,29.21
2023-09-10T08:04:14.014Z,29.41
2023-09-10T08:05:14.040Z,29.31
2023-09-10T08:06:14.012Z,28.38
2023-09-10T08:07:13.970Z,27.82
2023-09-10T08:08:14.010Z,27.95
2023-09-10T08:09:13.942Z,28.16
2023-09-10T08:10:13.934Z,28.19
2023-09-10T08:11:14.001Z,28.09
2023-09-10T08:12:13.909Z,28.38
2023-09-10T08:13:13.930Z,28.25
2023-09-10T08:14:13.901Z,28.53
2023-09-10T08:15:13.891Z,28.56
2023-09-10T08:16:13.915Z,28.74
2023-09-10T08:17:13.925Z,28.80
2023-09-10T08:18:13.882Z,28.09
2023-09-10T08:19:13.852Z,27.49
2023-09-10T08:20:13.889Z,26.53
2023-09-10T08:21:13.826Z,26.23
2023-09-10T08:22:13.817Z,26.88
2023-09-10T08:23:13.822Z,27.38
2023-09-10T08:24:13.778Z,27.54
2023-09-10T08:25:13.777Z,27.94
2023-09-10T08:26:13.830Z,28.06
2023-09-10T08:27:13.875Z,27.31
2023-09-10T08:28:13.749Z,27.54
2023-09-10T08:29:13.774Z,27.90
2023-09-10T08:30:13.726Z,27.66
2023-09-10T08:31:13.781Z,27.42
2023-09-10T08:32:15.631Z,27.44
2023-09-10T08:33:13.720Z,27.72
2023-09-10T08:34:13.677Z,28.00
2023-09-10T08:35:13.745Z,28.01
2023-09-10T08:36:13.657Z,28.28
2023-09-10T08:37:13.680Z,28.09
2023-09-10T08:38:13.753Z,27.75
2023-09-10T08:39:13.632Z,27.69
2023-09-10T08:40:13.616Z,27.76
2023-09-10T08:41:13.676Z,27.50
2023-09-10T08:42:13.713Z,27.79
2023-09-10T08:43:13.606Z,28.05
2023-09-10T08:44:13.612Z,28.32
2023-09-10T08:45:13.572Z,28.77
2023-09-10T08:46:13.603Z,28.81
2023-09-10T08:47:13.570Z,29.07
2023-09-10T08:48:13.542Z,29.24
2023-09-10T08:49:13.541Z,28.87
2023-09-10T08:50:13.584Z,28.31
2023-09-10T08:51:13.502Z,28.35
2023-09-10T08:52:13.491Z,28.35
2023-09-10T08:53:13.776Z,28.49
2023-09-10T08:54:13.512Z,28.75
2023-09-10T08:55:13.464Z,29.00
2023-09-10T08:56:13.465Z,29.18
2023-09-10T08:57:13.439Z,29.02
2023-09-10T08:58:13.426Z,28.84
2023-09-10T08:59:13.462Z,28.96
2023-09-10T09:00:13.485Z,29.04
2023-09-10T09:01:13.421Z,29.15
2023-09-10T09:02:13.439Z,29.27
2023-09-10T09:03:13.532Z,29.21
2023-09-10T09:04:13.365Z,29.09
2023-09-10T09:05:13.455Z,29.24
2023-09-10T09:06:13.497Z,29.36
2023-09-10T09:07:13.385Z,28.81
2023-09-10T09:08:13.341Z,28.65
2023-09-10T09:09:13.312Z,28.17
2023-09-10T09:10:13.299Z,28.09
2023-09-10T09:11:13.378Z,27.85
2023-09-10T09:12:13.284Z,27.88
2023-09-10T09:13:13.283Z,28.03
2023-09-10T09:14:13.279Z,28.27
2023-09-10T09:15:13.286Z,28.52
2023-09-10T09:16:13.273Z,28.77
2023-09-10T09:17:14.775Z,28.98
2023-09-10T09:18:13.251Z,29.07
2023-09-10T09:19:13.737Z,29.22
2023-09-10T09:20:13.267Z,29.22
2023-09-10T09:21:13.197Z,29.07
2023-09-10T09:22:13.174Z,28.75
2023-09-10T09:23:13.236Z,28.68
2023-09-10T09:24:13.156Z,28.66
2023-09-10T09:25:13.157Z,28.44
2023-09-10T09:26:13.150Z,28.46
2023-09-10T09:27:13.126Z,28.52
2023-09-10T09:28:13.133Z,28.68
2023-09-10T09:29:13.182Z,28.80
2023-09-10T09:30:13.109Z,28.42
2023-09-10T09:31:13.107Z,28.09
2023-09-10T09:32:13.107Z,27.87
2023-09-10T09:33:13.096Z,27.85
2023-09-10T09:34:13.072Z,27.87
2023-09-10T09:35:13.056Z,27.82
2023-09-10T09:36:13.039Z,27.78
2023-09-10T09:37:13.019Z,27.80
2023-09-10T09:38:13.086Z,27.78
2023-09-10T09:39:13.028Z,27.76
2023-09-10T09:40:13.004Z,27.57
2023-09-10T09:41:13.024Z,27.08
2023-09-10T09:42:12.968Z,27.20
2023-09-10T09:43:19.245Z,27.38
2023-09-10T09:44:12.990Z,27.45
2023-09-10T09:45:12.965Z,27.44
2023-09-10T09:46:12.961Z,27.57
2023-09-10T09:47:12.922Z,27.70
2023-09-10T09:48:12.995Z,27.73
2023-09-10T09:49:12.924Z,27.90
2023-09-10T09:50:12.921Z,27.90
2023-09-10T09:51:12.889Z,27.91
2023-09-10T09:52:12.858Z,27.70
2023-09-10T09:53:12.883Z,27.80
2023-09-10T09:54:12.856Z,27.87
2023-09-10T09:55:12.833Z,28.00
2023-09-10T09:56:12.848Z,28.12
2023-09-10T09:57:12.823Z,28.10
2023-09-10T09:58:12.800Z,28.09
2023-09-10T09:59:12.848Z,28.15
2023-09-10T10:00:12.775Z,28.07
2023-09-10T10:01:12.792Z,27.87
2023-09-10T10:02:12.998Z,27.93
2023-09-10T10:03:12.811Z,28.09
2023-09-10T10:04:12.750Z,28.09
2023-09-10T10:05:12.774Z,28.05
2023-09-10T10:06:12.715Z,28.12
2023-09-10T10:07:23.120Z,28.25
2023-09-10T10:08:12.736Z,28.30
2023-09-10T10:09:12.694Z,28.37
2023-09-10T10:10:12.684Z,28.46
2023-09-10T10:11:12.728Z,28.43
2023-09-10T10:12:12.668Z,28.54
2023-09-10T10:13:12.661Z,28.42
2023-09-10T10:14:12.682Z,28.00
2023-09-10T10:15:12.622Z,28.00
2023-09-10T10:16:12.664Z,28.03
2023-09-10T10:17:12.757Z,28.13
2023-09-10T10:18:12.702Z,28.20
2023-09-10T10:19:12.589Z,28.31
2023-09-10T10:20:12.635Z,28.35
2023-09-10T10:21:12.561Z,28.42
2023-09-10T10:22:12.570Z,28.46
2023-09-10T10:23:23.055Z,28.40
2023-09-10T10:24:12.555Z,28.54
2023-09-10T10:25:12.535Z,28.50
2023-09-10T10:26:12.557Z,28.47
2023-09-10T10:27:12.506Z,28.56
2023-09-10T10:28:12.500Z,28.53
2023-09-10T10:29:12.494Z,28.69
2023-09-10T10:30:12.494Z,28.80
2023-09-10T10:31:12.477Z,28.98
2023-09-10T10:32:12.522Z,28.98
2023-09-10T10:33:12.474Z,29.04
2023-09-10T10:34:12.433Z,29.13
2023-09-10T10:35:12.476Z,28.72
2023-09-10T10:36:12.413Z,28.71
2023-09-10T10:37:12.395Z,28.74
2023-09-10T10:38:12.458Z,28.68
2023-09-10T10:39:12.378Z,28.75
2023-09-10T10:40:12.442Z,28.79
2023-09-10T10:41:12.377Z,28.83
2023-09-10T10:42:12.359Z,28.86
2023-09-10T10:43:12.337Z,28.81
2023-09-10T10:44:12.346Z,28.59
2023-09-10T10:45:12.333Z,28.69
2023-09-10T10:46:12.348Z,28.80
2023-09-10T10:47:12.326Z,28.93
2023-09-10T10:48:12.335Z,29.03
2023-09-10T10:49:12.275Z,28.94
2023-09-10T10:50:12.407Z,29.06
2023-09-10T10:51:12.395Z,29.10
2023-09-10T10:52:12.246Z,29.17
2023-09-10T10:53:12.311Z,29.13
2023-09-10T10:54:12.230Z,29.24
2023-09-10T10:55:12.227Z,29.41
2023-09-10T10:56:12.221Z,29.44
2023-09-10T10:57:12.234Z,29.09
2023-09-10T10:58:12.189Z,29.22
2023-09-10T10:59:12.199Z,29.28
2023-09-10T11:00:12.188Z,29.36
2023-09-10T11:01:12.172Z,29.44
2023-09-10T11:02:12.183Z,29.52
2023-09-10T11:03:12.221Z,29.31
2023-09-10T11:04:12.119Z,29.39
2023-09-10T11:05:12.180Z,29.43
2023-09-10T11:06:12.112Z,29.43
2023-09-10T11:07:12.090Z,29.56
2023-09-10T11:08:12.100Z,29.40
2023-09-10T11:09:12.063Z,29.39
2023-09-10T11:10:12.089Z,29.25
2023-09-10T11:11:12.156Z,29.19
2023-09-10T11:12:12.040Z,29.27
2023-09-10T11:13:12.033Z,29.25
2023-09-10T11:14:12.084Z,29.41
2023-09-10T11:15:12.116Z,29.56
2023-09-10T11:16:12.041Z,29.49
2023-09-10T11:17:12.034Z,29.27
2023-09-10T11:18:12.006Z,29.46
2023-09-10T11:19:11.965Z,29.62
2023-09-10T11:20:11.994Z,29.74
2023-09-10T11:21:11.987Z,29.81
2023-09-10T11:22:11.946Z,29.92
2023-09-10T11:23:11.941Z,30.02
2023-09-10T11:24:11.912Z,30.02
2023-09-10T11:25:11.897Z,30.15
2023-09-10T11:26:12.038Z,30.29
2023-09-10T11:27:11.879Z,30.30
2023-09-10T11:28:11.882Z,30.22
2023-09-10T11:29:11.891Z,30.29
2023-09-10T11:30:11.857Z,30.11
2023-09-10T11:31:11.900Z,30.11
2023-09-10T11:32:11.941Z,30.14
2023-09-10T11:33:11.864Z,30.03
2023-09-10T11:34:11.812Z,30.14
2023-09-10T11:35:11.806Z,30.24
2023-09-10T11:36:11.792Z,30.26
2023-09-10T11:37:12.152Z,30.13
2023-09-10T11:38:11.793Z,30.20
2023-09-10T11:39:11.765Z,30.30
2023-09-10T11:40:11.803Z,30.35
2023-09-10T11:41:11.750Z,30.45
2023-09-10T11:42:11.751Z,30.59
2023-09-10T11:43:11.712Z,30.39
2023-09-10T11:44:11.768Z,30.21
2023-09-10T11:45:11.698Z,30.20
2023-09-10T11:46:11.690Z,30.24
2023-09-10T11:47:11.775Z,30.26
2023-09-10T11:48:11.766Z,30.30
2023-09-10T11:49:11.673Z,30.39
2023-09-10T11:50:11.749Z,30.22
2023-09-10T11:51:11.646Z,30.32
2023-09-10T11:52:11.668Z,30.33
2023-09-10T11:53:13.554Z,30.46
2023-09-10T11:54:11.610Z,30.22
2023-09-10T11:55:11.623Z,30.13
2023-09-10T11:56:11.633Z,29.96
2023-09-10T11:57:11.585Z,29.80
2023-09-10T11:58:11.573Z,29.63
2023-09-10T11:59:11.602Z,29.73
2023-09-10T12:00:11.566Z,29.84
2023-09-10T12:01:11.560Z,29.93
2023-09-10T12:02:11.624Z,29.96
2023-09-10T12:03:11.665Z,30.10
2023-09-10T12:04:11.615Z,30.21
2023-09-10T12:05:11.497Z,30.40
2023-09-10T12:06:11.485Z,30.33
2023-09-10T12:07:11.494Z,30.46
2023-09-10T12:08:11.538Z,30.64
2023-09-10T12:09:11.449Z,30.74
2023-09-10T12:10:11.445Z,30.80
2023-09-10T12:11:11.527Z,30.92
2023-09-10T12:12:11.456Z,31.02
2023-09-10T12:13:11.428Z,30.97
2023-09-10T12:14:11.451Z,30.60
2023-09-10T12:15:11.391Z,30.53
2023-09-10T12:16:11.501Z,30.46
2023-09-10T12:17:11.450Z,30.53
2023-09-10T12:18:11.412Z,30.59
2023-09-10T12:19:11.357Z,30.70
2023-09-10T12:20:11.640Z,30.83
2023-09-10T12:21:11.324Z,30.92
2023-09-10T12:22:11.321Z,30.68
2023-09-10T12:23:11.413Z,30.86
2023-09-10T12:24:11.300Z,31.01
2023-09-10T12:25:11.298Z,31.07
2023-09-10T12:26:11.305Z,31.04
2023-09-10T12:27:11.272Z,30.99
2023-09-10T12:28:11.278Z,30.83
2023-09-10T12:29:11.260Z,30.78
2023-09-10T12:30:11.240Z,30.73
2023-09-10T12:31:11.265Z,30.59
2023-09-10T12:32:11.265Z,30.56
2023-09-10T12:33:11.249Z,30.49
2023-09-10T12:34:11.189Z,30.65
2023-09-10T12:35:11.225Z,30.80
2023-09-10T12:36:11.178Z,30.86
2023-09-10T12:37:11.157Z,30.90
2023-09-10T12:38:11.252Z,30.95
2023-09-10T12:39:11.139Z,31.11
2023-09-10T12:40:11.133Z,31.23
2023-09-10T12:41:11.148Z,31.41
2023-09-10T12:42:11.113Z,31.49
2023-09-10T12:43:11.123Z,31.56
2023-09-10T12:44:11.168Z,31.26
2023-09-10T12:45:11.085Z,31.34
2023-09-10T12:46:11.127Z,31.39
2023-09-10T12:47:13.944Z,31.42
2023-09-10T12:48:11.171Z,31.51
2023-09-10T12:49:11.041Z,31.44
2023-09-10T12:50:11.046Z,31.26
2023-09-10T12:51:11.012Z,31.04
2023-09-10T12:52:11.043Z,30.83
2023-09-10T12:53:11.052Z,30.78